Time;durP1;ratioP1;P1;durP2;ratioP2;P2;SDS_P1;SDS_P2;PMS_P1;PMS_P2;Temp;Humidity;BMP_temperature;BMP_pressure;BME280_temperature;BME280_humidity;BME280_pressure;Samples;Min_cycle;Max_cycle;Signal;HPM_P1;HPM_P2
2023/04/21 00:01:21;;;;;;;10.77;5.35;;;;;;;;;;5000108;28;20711;-52
2023/04/21 00:03:48;;;;;;;7.00;5.90;;;;;;;;;;5001083;28;20248;-53
2023/04/21 00:06:21;;;;;;;13.63;6.83;;;;;;;;;;5002371;28;20225;-52
2023/04/21 00:08:47;;;;;;;6.75;4.82;;;;;;;;;;4999685;28;20373;-52
2023/04/21 00:11:14;;;;;;;6.35;5.53;;;;;;;;;;5009291;28;20233;-52
2023/04/21 00:13:42;;;;;;;11.97;6.37;;;;;;;;;;4992047;28;20253;-52
2023/04/21 00:16:09;;;;;;;13.23;7.00;;;;;;;;;;5004554;28;20781;-52
2023/04/21 00:18:35;;;;;;;9.40;6.82;;;;;;;;;;4995303;28;20320;-52
2023/04/21 00:21:02;;;;;;;10.63;5.85;;;;;;;;;;4994832;28;20295;-51
2023/04/21 00:23:28;;;;;;;8.32;6.68;;;;;;;;;;4996952;28;20324;-52
2023/04/21 00:25:54;;;;;;;10.23;6.45;;;;;;;;;;4996996;28;20233;-55
2023/04/21 00:28:21;;;;;;;14.27;7.30;;;;;;;;;;5001100;28;20245;-52
2023/04/21 00:30:48;;;;;;;11.98;6.70;;;;;;;;;;5005640;28;20244;-53
2023/04/21 00:33:15;;;;;;;11.55;6.57;;;;;;;;;;5000671;28;20885;-52
2023/04/21 00:35:41;;;;;;;10.27;6.15;;;;;;;;;;4996024;28;20731;-53
2023/04/21 00:38:07;;;;;;;10.50;7.03;;;;;;;;;;4994387;28;20340;-53
2023/04/21 00:40:34;;;;;;;12.07;5.88;;;;;;;;;;5002144;28;20251;-53
2023/04/21 00:43:00;;;;;;;10.75;6.95;;;;;;;;;;4997841;28;20265;-53
2023/04/21 00:45:27;;;;;;;11.67;6.47;;;;;;;;;;5005308;28;20243;-53
2023/04/21 00:47:54;;;;;;;12.23;6.83;;;;;;;;;;5005958;28;20239;-52
2023/04/21 00:50:21;;;;;;;10.70;6.83;;;;;;;;;;5006147;28;20478;-52
2023/04/21 00:52:47;;;;;;;11.77;7.83;;;;;;;;;;5005732;28;20324;-52
2023/04/21 00:55:14;;;;;;;9.27;6.25;;;;;;;;;;5004321;28;20329;-53
2023/04/21 00:57:40;;;;;;;13.70;7.13;;;;;;;;;;5001417;28;20237;-52
2023/04/21 01:00:09;;;;;;;9.50;7.28;;;;;;;;;;5008048;28;20242;-52
2023/04/21 01:02:36;;;;;;;9.95;6.60;;;;;;;;;;5007629;28;20232;-53
2023/04/21 01:05:07;;;;;;;13.30;7.45;;;;;;;;;;5006480;28;20240;-52
2023/04/21 01:07:34;;;;;;;7.50;6.53;;;;;;;;;;5008134;28;20232;-51
2023/04/21 01:10:00;;;;;;;11.15;6.60;;;;;;;;;;5007719;28;20627;-54
2023/04/21 01:12:26;;;;;;;11.23;7.93;;;;;;;;;;5009820;28;20239;-51
2023/04/21 01:14:53;;;;;;;9.80;7.13;;;;;;;;;;5004145;28;20984;-52
2023/04/21 01:17:19;;;;;;;12.00;8.10;;;;;;;;;;5006915;28;20312;-53
2023/04/21 01:19:46;;;;;;;8.33;7.37;;;;;;;;;;5008398;28;20239;-52
2023/04/21 01:22:14;;;;;;;11.40;7.63;;;;;;;;;;5003762;28;20240;-53
2023/04/21 01:24:41;;;;;;;10.03;7.83;;;;;;;;;;5007809;28;20241;-51
2023/04/21 01:27:11;;;;;;;12.13;9.43;;;;;;;;;;5006455;28;20243;-52
2023/04/21 01:29:37;;;;;;;13.23;8.17;;;;;;;;;;5006280;28;20255;-52
2023/04/21 01:32:06;;;;;;;11.30;8.97;;;;;;;;;;5007013;28;20786;-52
2023/04/21 01:34:32;;;;;;;13.80;8.13;;;;;;;;;;5009122;28;20239;-52
2023/04/21 01:36:58;;;;;;;13.87;8.00;;;;;;;;;;5014392;28;20241;-51
2023/04/21 01:39:26;;;;;;;12.93;8.30;;;;;;;;;;5009014;28;20233;-51
2023/04/21 01:41:54;;;;;;;9.93;8.20;;;;;;;;;;5009188;28;20233;-52
2023/04/21 01:44:20;;;;;;;13.60;9.20;;;;;;;;;;5003881;28;20811;-53
2023/04/21 01:46:47;;;;;;;10.20;9.17;;;;;;;;;;5007198;28;20263;-52
2023/04/21 01:49:13;;;;;;;9.97;8.83;;;;;;;;;;5024895;28;20236;-54
2023/04/21 01:51:40;;;;;;;14.57;8.67;;;;;;;;;;5027621;28;20229;-53
2023/04/21 01:54:06;;;;;;;12.93;9.27;;;;;;;;;;5023958;28;20280;-52
2023/04/21 01:56:34;;;;;;;14.00;8.73;;;;;;;;;;5021095;28;20692;-52
2023/04/21 01:59:00;;;;;;;10.97;7.83;;;;;;;;;;5019230;28;20367;-51
2023/04/21 02:01:27;;;;;;;12.37;8.37;;;;;;;;;;5012677;28;20320;-52
2023/04/21 02:03:53;;;;;;;9.07;8.20;;;;;;;;;;5003932;28;20404;-52
2023/04/21 02:06:19;;;;;;;15.13;8.90;;;;;;;;;;5006187;28;20241;-51
2023/04/21 02:08:46;;;;;;;13.40;9.23;;;;;;;;;;5004120;28;20607;-51
2023/04/21 02:11:12;;;;;;;15.87;8.23;;;;;;;;;;5004622;28;20316;-52
2023/04/21 02:13:40;;;;;;;10.93;8.03;;;;;;;;;;5005134;28;20244;-52
2023/04/21 02:16:06;;;;;;;15.47;9.03;;;;;;;;;;5002396;28;20237;-52
2023/04/21 02:18:33;;;;;;;13.93;10.27;;;;;;;;;;5004271;28;20233;-52
2023/04/21 02:21:00;;;;;;;10.10;8.63;;;;;;;;;;4998679;28;20237;-52
2023/04/21 02:23:26;;;;;;;11.57;9.60;;;;;;;;;;5000090;28;20731;-51
2023/04/21 02:25:52;;;;;;;11.03;9.90;;;;;;;;;;5006056;28;20245;-52
2023/04/21 02:28:19;;;;;;;12.63;9.20;;;;;;;;;;5004922;28;20225;-54
2023/04/21 02:30:46;;;;;;;11.73;8.90;;;;;;;;;;5004130;28;20348;-51
2023/04/21 02:33:13;;;;;;;12.63;9.67;;;;;;;;;;4999674;28;20272;-53
2023/04/21 02:35:39;;;;;;;11.73;10.07;;;;;;;;;;5000176;28;20245;-53
2023/04/21 02:38:06;;;;;;;16.37;9.77;;;;;;;;;;5003703;28;20255;-52
2023/04/21 02:40:32;;;;;;;12.73;10.23;;;;;;;;;;5005067;28;20233;-52
2023/04/21 02:42:58;;;;;;;12.60;11.20;;;;;;;;;;5004425;28;20225;-52
2023/04/21 02:45:25;;;;;;;14.40;11.10;;;;;;;;;;5001369;28;20251;-51
2023/04/21 02:47:52;;;;;;;15.20;10.57;;;;;;;;;;5003338;28;20237;-52
2023/04/21 02:50:19;;;;;;;14.27;12.47;;;;;;;;;;5003291;28;20239;-53
2023/04/21 02:52:45;;;;;;;17.13;12.73;;;;;;;;;;5003188;28;20229;-51
2023/04/21 02:55:12;;;;;;;16.83;14.67;;;;;;;;;;5001580;28;20330;-55
2023/04/21 02:57:38;;;;;;;17.37;15.00;;;;;;;;;;4997928;28;20284;-52
2023/04/21 03:00:06;;;;;;;19.73;14.80;;;;;;;;;;5005738;28;20299;-51
2023/04/21 03:02:32;;;;;;;16.30;12.57;;;;;;;;;;5003194;28;20237;-51
2023/04/21 03:05:00;;;;;;;15.63;12.83;;;;;;;;;;5004301;28;20237;-52
2023/04/21 03:07:26;;;;;;;15.13;10.33;;;;;;;;;;5001336;28;20235;-52
2023/04/21 03:09:53;;;;;;;12.30;9.47;;;;;;;;;;5003991;28;20739;-51
2023/04/21 03:12:19;;;;;;;15.17;10.63;;;;;;;;;;5001413;28;20295;-51
2023/04/21 03:14:46;;;;;;;12.20;10.20;;;;;;;;;;5000913;28;21002;-52
2023/04/21 03:17:12;;;;;;;11.13;10.00;;;;;;;;;;5001047;28;20237;-52
2023/04/21 03:19:39;;;;;;;10.77;9.53;;;;;;;;;;5000440;28;20454;-52
2023/04/21 03:22:06;;;;;;;10.87;9.77;;;;;;;;;;4998203;28;20649;-55
2023/04/21 03:24:33;;;;;;;11.20;9.93;;;;;;;;;;5003606;28;20233;-53
2023/04/21 03:27:00;;;;;;;12.03;10.83;;;;;;;;;;5002421;28;20233;-50
2023/04/21 03:29:27;;;;;;;11.13;9.90;;;;;;;;;;5002429;28;20275;-53
2023/04/21 03:31:53;;;;;;;13.70;10.77;;;;;;;;;;5002859;28;20320;-51
2023/04/21 03:34:19;;;;;;;10.00;9.00;;;;;;;;;;5003862;28;20233;-53
2023/04/21 03:36:46;;;;;;;12.63;10.90;;;;;;;;;;5006282;28;20323;-53
2023/04/21 03:39:13;;;;;;;11.77;10.53;;;;;;;;;;5005031;28;20234;-52
2023/04/21 03:41:40;;;;;;;10.97;9.87;;;;;;;;;;4998513;28;20235;-51
2023/04/21 03:44:06;;;;;;;13.80;10.63;;;;;;;;;;5002522;28;20336;-53
2023/04/21 03:46:32;;;;;;;13.43;10.20;;;;;;;;;;5004106;28;20241;-53
2023/04/21 03:48:59;;;;;;;11.27;9.93;;;;;;;;;;5002148;28;20843;-52
2023/04/21 03:51:26;;;;;;;11.23;10.13;;;;;;;;;;5001961;28;20248;-53
2023/04/21 03:53:52;;;;;;;14.80;10.20;;;;;;;;;;5001490;28;20348;-51
2023/04/21 03:56:20;;;;;;;11.27;9.43;;;;;;;;;;5000842;28;20244;-52
2023/04/21 03:58:46;;;;;;;12.60;10.37;;;;;;;;;;5001370;28;20240;-52
2023/04/21 04:01:13;;;;;;;11.83;10.20;;;;;;;;;;5002385;28;20319;-53
2023/04/21 04:03:39;;;;;;;11.53;10.20;;;;;;;;;;5013640;28;20245;-53
2023/04/21 04:06:06;;;;;;;12.07;10.23;;;;;;;;;;4999018;28;20245;-53
2023/04/21 04:08:32;;;;;;;12.23;10.93;;;;;;;;;;5007945;28;20233;-52
2023/04/21 04:10:58;;;;;;;16.07;11.10;;;;;;;;;;4992321;28;20828;-51
2023/04/21 04:13:27;;;;;;;15.43;10.27;;;;;;;;;;4993189;28;20340;-51
2023/04/21 04:15:54;;;;;;;14.67;11.03;;;;;;;;;;5004333;28;20804;-51
2023/04/21 04:18:20;;;;;;;13.07;9.70;;;;;;;;;;4995628;28;20241;-53
2023/04/21 04:20:46;;;;;;;13.40;10.87;;;;;;;;;;5003617;28;20601;-51
2023/04/21 04:23:13;;;;;;;12.13;9.77;;;;;;;;;;5003613;28;20229;-52
2023/04/21 04:25:39;;;;;;;12.90;10.37;;;;;;;;;;5000519;28;20262;-51
2023/04/21 04:28:06;;;;;;;17.57;10.43;;;;;;;;;;5002733;28;20245;-53
2023/04/21 04:30:34;;;;;;;12.07;9.73;;;;;;;;;;4999878;28;20247;-52
2023/04/21 04:33:00;;;;;;;17.03;11.40;;;;;;;;;;4995958;28;20247;-53
2023/04/21 04:35:26;;;;;;;11.77;10.57;;;;;;;;;;5000395;28;20246;-51
2023/04/21 04:37:53;;;;;;;12.80;11.17;;;;;;;;;;5001173;28;20235;-54
2023/04/21 04:40:21;;;;;;;11.50;10.10;;;;;;;;;;5002756;28;20233;-52
2023/04/21 04:42:47;;;;;;;13.23;10.60;;;;;;;;;;5001494;28;22527;-53
2023/04/21 04:45:15;;;;;;;13.23;11.33;;;;;;;;;;5003693;28;20245;-52
2023/04/21 04:47:44;;;;;;;12.90;10.80;;;;;;;;;;4999444;28;20233;-52
2023/04/21 04:50:11;;;;;;;14.27;11.03;;;;;;;;;;5001727;28;20264;-53
2023/04/21 04:52:37;;;;;;;12.00;9.57;;;;;;;;;;5001257;28;20233;-51
2023/04/21 04:55:04;;;;;;;16.10;10.67;;;;;;;;;;4999477;28;20234;-52
2023/04/21 04:57:31;;;;;;;16.70;11.20;;;;;;;;;;5000192;28;20229;-51
2023/04/21 04:59:57;;;;;;;15.37;10.57;;;;;;;;;;5002706;28;20727;-53
2023/04/21 05:02:23;;;;;;;11.23;10.07;;;;;;;;;;5002399;28;20767;-51
2023/04/21 05:04:51;;;;;;;13.17;10.97;;;;;;;;;;5002565;28;20245;-52
2023/04/21 05:07:18;;;;;;;11.90;10.20;;;;;;;;;;4997065;28;20237;-52
2023/04/21 05:09:44;;;;;;;12.63;11.33;;;;;;;;;;4998678;28;20325;-53
2023/04/21 05:12:11;;;;;;;13.67;12.03;;;;;;;;;;5002329;28;20237;-53
2023/04/21 05:14:37;;;;;;;13.77;10.70;;;;;;;;;;5003192;28;20445;-52
2023/04/21 05:17:03;;;;;;;12.50;11.20;;;;;;;;;;5002687;28;20233;-52
2023/04/21 05:19:30;;;;;;;11.47;10.27;;;;;;;;;;4999680;28;20312;-52
2023/04/21 05:22:00;;;;;;;11.37;10.27;;;;;;;;;;5000327;28;20257;-54
2023/04/21 05:24:27;;;;;;;11.93;10.27;;;;;;;;;;5002688;28;20233;-52
2023/04/21 05:26:53;;;;;;;13.83;11.27;;;;;;;;;;5001765;28;20328;-52
2023/04/21 05:29:20;;;;;;;12.80;11.17;;;;;;;;;;4997344;28;20235;-52
2023/04/21 05:31:46;;;;;;;12.97;11.00;;;;;;;;;;5004974;28;20304;-53
2023/04/21 05:34:12;;;;;;;14.40;11.70;;;;;;;;;;5003750;28;20237;-52
2023/04/21 05:36:41;;;;;;;14.77;11.50;;;;;;;;;;5004640;28;20307;-52
2023/04/21 05:39:08;;;;;;;14.20;11.40;;;;;;;;;;5007113;28;20245;-52
2023/04/21 05:41:35;;;;;;;12.17;10.83;;;;;;;;;;5003046;28;20229;-52
2023/04/21 05:44:01;;;;;;;14.60;11.27;;;;;;;;;;5001559;28;20276;-52
2023/04/21 05:46:29;;;;;;;12.37;11.00;;;;;;;;;;5001101;28;20328;-55
2023/04/21 05:48:55;;;;;;;14.97;10.77;;;;;;;;;;5000185;28;20656;-52
2023/04/21 05:51:21;;;;;;;11.30;10.20;;;;;;;;;;5006677;28;20265;-52
2023/04/21 05:53:48;;;;;;;14.27;11.10;;;;;;;;;;5003461;28;20242;-53
2023/04/21 05:56:15;;;;;;;12.57;11.27;;;;;;;;;;4998244;28;20811;-52
2023/04/21 05:58:42;;;;;;;11.60;10.40;;;;;;;;;;5003188;28;20251;-52
2023/04/21 06:01:08;;;;;;;18.93;11.73;;;;;;;;;;5002624;28;20325;-51
2023/04/21 06:03:34;;;;;;;12.70;11.10;;;;;;;;;;4999419;28;20726;-51
2023/04/21 06:06:02;;;;;;;12.23;10.93;;;;;;;;;;4999460;28;20240;-53
2023/04/21 06:08:28;;;;;;;15.60;11.90;;;;;;;;;;5007900;28;20229;-52
2023/04/21 06:10:54;;;;;;;16.30;11.47;;;;;;;;;;4998677;28;20229;-51
2023/04/21 06:13:22;;;;;;;11.53;10.33;;;;;;;;;;5005577;28;20723;-52
2023/04/21 06:15:48;;;;;;;14.47;10.70;;;;;;;;;;5008816;28;20229;-52
2023/04/21 06:18:15;;;;;;;13.30;11.40;;;;;;;;;;4995866;28;20233;-52
2023/04/21 06:20:42;;;;;;;20.80;10.53;;;;;;;;;;5002437;28;20233;-52
2023/04/21 06:23:08;;;;;;;12.68;10.20;;;;;;;;;;4996732;28;20375;-52
2023/04/21 06:25:34;;;;;;;12.10;10.47;;;;;;;;;;5006632;28;20636;-52
2023/04/21 06:28:01;;;;;;;14.27;10.65;;;;;;;;;;4995129;28;20229;-54
2023/04/21 06:30:29;;;;;;;13.67;11.23;;;;;;;;;;5000885;28;20248;-52
2023/04/21 06:32:55;;;;;;;12.10;10.80;;;;;;;;;;5002056;28;20602;-51
2023/04/21 06:35:21;;;;;;;15.13;10.43;;;;;;;;;;4996088;28;20247;-52
2023/04/21 06:37:48;;;;;;;12.90;10.37;;;;;;;;;;5002973;28;20239;-52
2023/04/21 06:40:15;;;;;;;13.07;10.57;;;;;;;;;;4998568;28;20241;-52
2023/04/21 06:42:42;;;;;;;17.08;11.13;;;;;;;;;;4994823;28;20244;-51
2023/04/21 06:45:08;;;;;;;15.03;10.73;;;;;;;;;;5003475;28;20657;-52
2023/04/21 06:47:36;;;;;;;13.53;11.43;;;;;;;;;;5003266;28;20461;-52
2023/04/21 06:50:03;;;;;;;12.95;10.82;;;;;;;;;;5003020;28;20352;-52
2023/04/21 06:52:29;;;;;;;13.00;11.52;;;;;;;;;;4997312;28;20247;-53
2023/04/21 06:54:55;;;;;;;11.98;10.77;;;;;;;;;;4984738;28;20260;-51
2023/04/21 06:57:22;;;;;;;13.00;10.33;;;;;;;;;;4999912;28;20314;-53
2023/04/21 06:59:48;;;;;;;11.13;9.88;;;;;;;;;;4997620;28;20249;-52
2023/04/21 07:02:14;;;;;;;13.40;10.60;;;;;;;;;;4998291;28;20677;-52
2023/04/21 07:04:42;;;;;;;12.30;11.00;;;;;;;;;;5002014;28;20240;-54
2023/04/21 07:07:08;;;;;;;11.40;10.23;;;;;;;;;;5000231;28;20237;-51
2023/04/21 07:09:35;;;;;;;11.23;9.35;;;;;;;;;;4998498;28;20237;-54
2023/04/21 07:12:01;;;;;;;12.10;10.80;;;;;;;;;;4999168;28;20660;-53
2023/04/21 07:14:28;;;;;;;10.35;9.40;;;;;;;;;;5000871;28;20267;-53
2023/04/21 07:16:55;;;;;;;11.13;9.35;;;;;;;;;;5001995;28;20324;-54
2023/04/21 07:19:22;;;;;;;11.52;10.32;;;;;;;;;;4999596;28;20735;-53
2023/04/21 07:21:50;;;;;;;11.07;10.00;;;;;;;;;;4997038;28;20240;-52
2023/04/21 07:24:16;;;;;;;14.07;10.60;;;;;;;;;;4999360;28;20235;-53
2023/04/21 07:26:43;;;;;;;11.27;9.65;;;;;;;;;;5000630;28;20237;-53
2023/04/21 07:29:09;;;;;;;14.90;11.13;;;;;;;;;;4994279;28;20236;-51
2023/04/21 07:31:35;;;;;;;13.30;10.88;;;;;;;;;;4998959;28;20260;-52
2023/04/21 07:34:02;;;;;;;11.57;10.48;;;;;;;;;;5002250;28;20320;-52
2023/04/21 07:36:28;;;;;;;12.48;11.18;;;;;;;;;;4999071;28;20395;-52
2023/04/21 07:38:56;;;;;;;13.43;10.27;;;;;;;;;;5000853;28;20675;-53
2023/04/21 07:41:22;;;;;;;10.80;9.70;;;;;;;;;;5000977;28;20253;-52
2023/04/21 07:43:48;;;;;;;12.38;11.13;;;;;;;;;;4997307;28;20233;-53
2023/04/21 07:46:15;;;;;;;15.25;11.77;;;;;;;;;;4999572;28;20241;-51
2023/04/21 07:48:41;;;;;;;11.60;9.52;;;;;;;;;;4996912;28;20241;-52
2023/04/21 07:51:08;;;;;;;10.50;9.50;;;;;;;;;;4996616;28;20254;-53
2023/04/21 07:53:34;;;;;;;15.02;10.65;;;;;;;;;;4995639;28;20608;-51
2023/04/21 07:56:02;;;;;;;12.60;9.98;;;;;;;;;;4983898;28;20239;-52
2023/04/21 07:58:28;;;;;;;11.30;10.10;;;;;;;;;;4991719;28;20230;-51
2023/04/21 08:00:54;;;;;;;12.55;10.10;;;;;;;;;;5000147;28;20987;-52
2023/04/21 08:03:21;;;;;;;10.93;9.82;;;;;;;;;;4999038;28;20251;-52
2023/04/21 08:05:47;;;;;;;11.57;10.43;;;;;;;;;;4999127;28;20233;-52
2023/04/21 08:08:19;;;;;;;13.32;10.52;;;;;;;;;;4998787;28;20233;-52
2023/04/21 08:10:45;;;;;;;12.02;9.57;;;;;;;;;;4998897;28;20231;-52
2023/04/21 08:13:13;;;;;;;14.60;10.70;;;;;;;;;;4993439;28;20245;-53
2023/04/21 08:15:39;;;;;;;10.93;9.82;;;;;;;;;;4999345;28;20245;-52
2023/04/21 08:18:05;;;;;;;11.13;8.60;;;;;;;;;;4994728;28;20320;-53
2023/04/21 08:20:32;;;;;;;13.02;9.95;;;;;;;;;;4995149;28;20229;-53
2023/04/21 08:22:58;;;;;;;13.88;10.93;;;;;;;;;;5002719;28;20731;-54
2023/04/21 08:25:25;;;;;;;10.40;9.30;;;;;;;;;;5000610;28;20334;-53
2023/04/21 08:27:52;;;;;;;13.82;9.35;;;;;;;;;;4993948;28;20237;-54
2023/04/21 08:30:20;;;;;;;11.82;9.80;;;;;;;;;;4999289;28;20229;-52
2023/04/21 08:32:46;;;;;;;10.75;9.60;;;;;;;;;;4993986;28;20265;-52
2023/04/21 08:35:13;;;;;;;13.25;9.95;;;;;;;;;;5013617;28;20242;-54
2023/04/21 08:37:40;;;;;;;10.38;9.23;;;;;;;;;;5011531;28;20230;-52
2023/04/21 08:40:07;;;;;;;10.63;9.30;;;;;;;;;;4991856;28;20232;-52
2023/04/21 08:42:35;;;;;;;9.35;8.52;;;;;;;;;;4990092;28;20283;-52
2023/04/21 08:45:02;;;;;;;10.23;8.48;;;;;;;;;;4997708;28;20237;-51
2023/04/21 08:47:32;;;;;;;9.25;8.30;;;;;;;;;;4995315;28;20237;-51
2023/04/21 08:49:58;;;;;;;10.75;8.93;;;;;;;;;;4998227;28;20256;-52
2023/04/21 08:52:25;;;;;;;13.57;9.77;;;;;;;;;;4994622;28;20228;-53
2023/04/21 08:54:54;;;;;;;11.50;9.60;;;;;;;;;;4999529;28;20299;-54
2023/04/21 08:57:20;;;;;;;10.38;9.32;;;;;;;;;;4997203;28;20237;-54
2023/04/21 08:59:47;;;;;;;10.75;9.43;;;;;;;;;;4995665;28;20818;-52
2023/04/21 09:02:14;;;;;;;10.32;9.05;;;;;;;;;;5000731;28;20323;-52
2023/04/21 09:04:43;;;;;;;10.20;9.10;;;;;;;;;;4996200;28;20251;-54
2023/04/21 09:07:09;;;;;;;10.88;9.57;;;;;;;;;;5002688;28;20238;-52
2023/04/21 09:09:52;;;;;;;14.27;9.68;;;;;;;;;;5006912;28;20256;-51
2023/04/21 09:12:18;;;;;;;9.65;8.63;;;;;;;;;;5002577;28;20710;-52
2023/04/21 09:14:45;;;;;;;10.15;8.80;;;;;;;;;;5004824;28;20316;-52
2023/04/21 09:17:11;;;;;;;12.73;8.30;;;;;;;;;;5005001;28;20246;-53
2023/04/21 09:19:37;;;;;;;9.20;8.13;;;;;;;;;;5003655;28;20325;-52
2023/04/21 09:22:05;;;;;;;11.18;8.57;;;;;;;;;;4996783;28;20326;-53
2023/04/21 09:24:32;;;;;;;13.75;9.15;;;;;;;;;;5004943;28;20328;-53
2023/04/21 09:27:02;;;;;;;12.75;8.52;;;;;;;;;;4997650;28;20737;-53
2023/04/21 09:29:29;;;;;;;10.50;8.90;;;;;;;;;;5004558;28;20269;-53
2023/04/21 09:31:56;;;;;;;9.38;7.90;;;;;;;;;;5008184;28;20714;-52
2023/04/21 09:34:23;;;;;;;9.40;8.40;;;;;;;;;;5005930;28;20329;-52
2023/04/21 09:36:58;;;;;;;11.82;8.65;;;;;;;;;;5005424;28;20240;-52
2023/04/21 09:39:26;;;;;;;13.05;9.63;;;;;;;;;;5005389;28;20726;-53
2023/04/21 09:41:53;;;;;;;9.80;7.78;;;;;;;;;;5005133;28;20316;-52
2023/04/21 09:44:19;;;;;;;12.40;9.38;;;;;;;;;;5008002;28;20247;-52
2023/04/21 09:46:48;;;;;;;10.88;8.63;;;;;;;;;;5000039;28;20242;-52
2023/04/21 09:49:16;;;;;;;10.00;9.05;;;;;;;;;;5002579;28;20316;-52
2023/04/21 09:51:43;;;;;;;14.20;8.50;;;;;;;;;;5001037;28;20248;-52
2023/04/21 09:54:12;;;;;;;8.25;7.45;;;;;;;;;;4990875;28;20317;-52
2023/04/21 09:56:40;;;;;;;10.50;9.18;;;;;;;;;;5005327;28;20233;-53
2023/04/21 09:59:07;;;;;;;9.15;8.25;;;;;;;;;;5004279;28;20312;-52
2023/04/21 10:01:37;;;;;;;9.40;8.25;;;;;;;;;;4998082;28;20234;-51
2023/04/21 10:04:04;;;;;;;9.73;7.80;;;;;;;;;;5002902;28;20241;-60
2023/04/21 10:06:30;;;;;;;9.88;8.48;;;;;;;;;;5000647;28;20241;-52
2023/04/21 10:08:57;;;;;;;8.68;7.72;;;;;;;;;;5002818;28;20237;-53
2023/04/21 10:11:24;;;;;;;8.60;7.38;;;;;;;;;;4999923;28;20245;-53
2023/04/21 10:13:52;;;;;;;9.80;8.15;;;;;;;;;;5004398;28;20233;-53
2023/04/21 10:16:20;;;;;;;23.35;8.63;;;;;;;;;;5002128;28;20225;-53
2023/04/21 10:18:46;;;;;;;7.97;7.18;;;;;;;;;;5002764;28;20692;-52
2023/04/21 10:21:20;;;;;;;11.30;7.60;;;;;;;;;;5001919;28;20233;-53
2023/04/21 10:23:46;;;;;;;13.32;7.90;;;;;;;;;;5000803;28;20276;-52
2023/04/21 10:26:13;;;;;;;8.25;7.25;;;;;;;;;;5005905;28;20239;-52
2023/04/21 10:28:44;;;;;;;9.18;7.95;;;;;;;;;;5000478;28;20316;-52
2023/04/21 10:31:34;;;;;;;8.18;7.30;;;;;;;;;;5008978;28;20781;-52
2023/04/21 10:34:18;;;;;;;8.88;7.47;;;;;;;;;;4986056;28;20221;-53
2023/04/21 10:37:03;;;;;;;7.88;7.18;;;;;;;;;;5004437;28;20248;-54
2023/04/21 10:39:34;;;;;;;8.40;6.72;;;;;;;;;;5001104;28;20597;-54
2023/04/21 10:42:19;;;;;;;10.02;7.47;;;;;;;;;;5005713;28;20237;-53
2023/04/21 10:44:51;;;;;;;10.10;6.85;;;;;;;;;;5001570;28;20237;-53
2023/04/21 10:47:24;;;;;;;11.75;7.13;;;;;;;;;;5007220;28;20522;-51
2023/04/21 10:49:52;;;;;;;11.15;7.38;;;;;;;;;;5013899;28;20222;-59
2023/04/21 10:52:19;;;;;;;10.55;7.15;;;;;;;;;;5001294;28;20235;-53
2023/04/21 10:55:01;;;;;;;9.13;6.82;;;;;;;;;;4994581;28;20315;-53
2023/04/21 10:57:31;;;;;;;11.73;7.80;;;;;;;;;;5002460;28;20695;-53
2023/04/21 10:59:58;;;;;;;7.55;6.70;;;;;;;;;;5002576;28;20502;-53
2023/04/21 11:02:24;;;;;;;8.70;6.65;;;;;;;;;;5002326;28;20233;-52
2023/04/21 11:04:52;;;;;;;7.18;6.47;;;;;;;;;;5004004;28;20233;-52
2023/04/21 11:07:20;;;;;;;6.55;5.95;;;;;;;;;;4997898;28;20248;-51
2023/04/21 11:09:47;;;;;;;9.75;7.25;;;;;;;;;;5004491;28;22411;-52
2023/04/21 11:12:16;;;;;;;10.43;7.75;;;;;;;;;;4995965;28;20739;-52
2023/04/21 11:14:45;;;;;;;10.02;7.05;;;;;;;;;;4994591;28;20329;-52
2023/04/21 11:17:12;;;;;;;8.45;7.28;;;;;;;;;;4996134;28;20236;-52
2023/04/21 11:19:39;;;;;;;7.72;6.65;;;;;;;;;;5001427;28;20226;-54
2023/04/21 11:22:07;;;;;;;7.40;6.63;;;;;;;;;;5026887;23;20232;-51
2023/04/21 11:24:35;;;;;;;8.30;6.80;;;;;;;;;;5019499;28;20225;-52
2023/04/21 11:27:01;;;;;;;7.32;6.63;;;;;;;;;;5022174;28;20235;-54
2023/04/21 11:29:29;;;;;;;7.32;6.63;;;;;;;;;;5023694;28;20232;-51
2023/04/21 11:31:57;;;;;;;8.18;6.95;;;;;;;;;;5034789;28;20236;-51
2023/04/21 11:34:26;;;;;;;7.70;6.88;;;;;;;;;;5034889;28;20325;-50
2023/04/21 11:36:52;;;;;;;8.70;6.97;;;;;;;;;;5035739;28;20231;-52
2023/04/21 11:39:21;;;;;;;7.35;6.63;;;;;;;;;;5038783;28;20232;-51
2023/04/21 11:41:48;;;;;;;8.15;7.03;;;;;;;;;;5038113;28;20297;-54
2023/04/21 11:44:30;;;;;;;7.75;6.65;;;;;;;;;;5040536;28;20882;-51
2023/04/21 11:46:57;;;;;;;7.60;6.88;;;;;;;;;;5041200;28;20232;-54
2023/04/21 11:49:25;;;;;;;7.22;6.57;;;;;;;;;;5041638;28;20239;-52
2023/04/21 11:51:51;;;;;;;7.80;6.93;;;;;;;;;;5041575;28;20240;-51
2023/04/21 11:54:20;;;;;;;9.30;7.43;;;;;;;;;;5047225;28;20242;-52
2023/04/21 11:56:49;;;;;;;7.22;6.32;;;;;;;;;;5037507;28;20916;-52
2023/04/21 11:59:18;;;;;;;8.40;6.88;;;;;;;;;;5042664;28;20662;-51
2023/04/21 12:01:44;;;;;;;7.90;6.95;;;;;;;;;;5039843;28;20239;-52
2023/04/21 12:04:14;;;;;;;9.27;7.38;;;;;;;;;;5044506;28;20286;-52
2023/04/21 12:06:40;;;;;;;8.50;6.85;;;;;;;;;;5042149;28;20247;-51
2023/04/21 12:09:07;;;;;;;10.40;7.45;;;;;;;;;;5043245;28;20236;-51
2023/04/21 12:11:34;;;;;;;12.25;7.78;;;;;;;;;;5042560;28;20606;-51
2023/04/21 12:14:02;;;;;;;8.25;6.82;;;;;;;;;;5038644;28;20782;-52
2023/04/21 12:16:29;;;;;;;7.43;6.57;;;;;;;;;;5044079;28;20227;-52
2023/04/21 12:18:56;;;;;;;7.13;6.43;;;;;;;;;;5037129;28;20243;-52
2023/04/21 12:21:26;;;;;;;7.85;7.05;;;;;;;;;;5035125;28;20721;-52
2023/04/21 12:23:53;;;;;;;7.07;6.38;;;;;;;;;;5036781;28;20247;-52
2023/04/21 12:26:19;;;;;;;7.50;6.55;;;;;;;;;;5043511;28;20252;-53
2023/04/21 12:28:46;;;;;;;8.95;6.30;;;;;;;;;;5040054;28;20904;-52
2023/04/21 12:31:14;;;;;;;6.50;5.88;;;;;;;;;;5033901;28;20293;-52
2023/04/21 12:33:40;;;;;;;10.43;7.10;;;;;;;;;;5034431;28;20281;-51
2023/04/21 12:36:07;;;;;;;9.65;6.50;;;;;;;;;;5042429;28;20307;-51
2023/04/21 12:38:34;;;;;;;7.18;6.47;;;;;;;;;;5040633;28;20220;-50
2023/04/21 12:41:00;;;;;;;6.72;5.97;;;;;;;;;;5040099;28;20263;-51
2023/04/21 12:43:27;;;;;;;9.48;6.85;;;;;;;;;;5039935;28;20235;-52
2023/04/21 12:45:54;;;;;;;11.07;6.60;;;;;;;;;;5041310;28;20244;-52
2023/04/21 12:48:22;;;;;;;7.53;6.82;;;;;;;;;;5036820;28;20257;-53
2023/04/21 12:50:49;;;;;;;10.02;7.38;;;;;;;;;;5043623;28;20232;-51
2023/04/21 12:53:15;;;;;;;7.20;6.50;;;;;;;;;;5041563;28;20231;-52
2023/04/21 12:55:42;;;;;;;9.88;6.35;;;;;;;;;;5036280;28;22906;-52
2023/04/21 12:58:11;;;;;;;8.32;6.68;;;;;;;;;;5039252;28;20718;-51
2023/04/21 13:00:38;;;;;;;8.13;5.63;;;;;;;;;;5040752;28;20244;-51
2023/04/21 13:03:04;;;;;;;8.40;6.60;;;;;;;;;;5036872;28;20262;-53
2023/04/21 13:05:32;;;;;;;10.20;6.75;;;;;;;;;;5034347;28;20251;-52
2023/04/21 13:07:59;;;;;;;8.18;6.55;;;;;;;;;;5035101;28;20231;-52
2023/04/21 13:10:26;;;;;;;8.80;6.85;;;;;;;;;;5038172;28;20656;-52
2023/04/21 13:12:52;;;;;;;7.32;6.60;;;;;;;;;;5039730;28;20231;-52
2023/04/21 13:15:19;;;;;;;6.70;6.03;;;;;;;;;;5033870;28;20282;-52
2023/04/21 13:17:45;;;;;;;7.15;6.32;;;;;;;;;;5035716;28;20236;-50
2023/04/21 13:20:12;;;;;;;10.35;6.78;;;;;;;;;;5030220;28;20242;-50
2023/04/21 13:22:40;;;;;;;6.72;6.10;;;;;;;;;;5038789;28;20282;-51
2023/04/21 13:25:06;;;;;;;8.77;5.90;;;;;;;;;;5038791;28;20231;-52
2023/04/21 13:27:33;;;;;;;6.80;6.20;;;;;;;;;;5039307;28;20474;-52
2023/04/21 13:30:00;;;;;;;7.10;6.40;;;;;;;;;;5041687;28;20246;-50
2023/04/21 13:32:26;;;;;;;7.25;5.28;;;;;;;;;;5042728;28;20255;-51
2023/04/21 13:34:53;;;;;;;8.02;6.10;;;;;;;;;;5038194;28;20228;-53
2023/04/21 13:37:20;;;;;;;6.35;5.80;;;;;;;;;;5038986;28;20228;-51
2023/04/21 13:39:48;;;;;;;7.45;6.75;;;;;;;;;;5033946;28;20231;-51
2023/04/21 13:42:14;;;;;;;6.97;5.40;;;;;;;;;;5040702;28;20232;-52
2023/04/21 13:44:41;;;;;;;7.82;5.53;;;;;;;;;;5044900;28;20228;-53
2023/04/21 13:47:08;;;;;;;6.88;6.28;;;;;;;;;;5040000;28;20243;-51
2023/04/21 13:49:34;;;;;;;6.15;5.65;;;;;;;;;;5040482;28;20345;-52
2023/04/21 13:52:01;;;;;;;10.00;6.47;;;;;;;;;;5045689;28;20270;-51
2023/04/21 13:54:28;;;;;;;6.82;6.20;;;;;;;;;;5047855;28;20235;-51
2023/04/21 13:56:56;;;;;;;8.18;6.32;;;;;;;;;;5043008;28;20286;-50
2023/04/21 13:59:23;;;;;;;6.90;6.20;;;;;;;;;;5042625;28;20234;-53
2023/04/21 14:01:49;;;;;;;7.40;5.90;;;;;;;;;;5038073;28;20238;-51
2023/04/21 14:04:16;;;;;;;12.40;6.38;;;;;;;;;;5041693;28;20258;-52
2023/04/21 14:06:43;;;;;;;6.03;5.32;;;;;;;;;;5039089;28;20963;-51
2023/04/21 14:09:10;;;;;;;6.72;5.75;;;;;;;;;;5042372;28;20236;-52
2023/04/21 14:11:37;;;;;;;6.75;6.15;;;;;;;;;;5034851;28;20243;-52
2023/04/21 14:14:05;;;;;;;6.88;5.38;;;;;;;;;;5038042;28;20243;-50
2023/04/21 14:16:31;;;;;;;7.10;6.03;;;;;;;;;;5033783;28;20255;-52
2023/04/21 14:18:58;;;;;;;12.50;5.90;;;;;;;;;;5042318;28;20242;-51
2023/04/21 14:21:24;;;;;;;6.07;5.57;;;;;;;;;;5040361;28;20239;-52
2023/04/21 14:23:51;;;;;;;6.40;5.78;;;;;;;;;;5040853;28;20266;-53
2023/04/21 14:26:18;;;;;;;8.45;6.07;;;;;;;;;;5040988;28;20664;-52
2023/04/21 14:28:44;;;;;;;5.63;5.15;;;;;;;;;;5039412;28;20815;-53
2023/04/21 14:31:12;;;;;;;6.93;6.15;;;;;;;;;;5038351;28;20648;-52